Terminal Aerodrome Forecast
Issued by NWS Upton, NY

Home | Current Version | Previous Version | Text Only | Print | Product List | Glossary On
Versions: 1 2 3 4 5 6 7 8 9 10 11 12 13 14 15 16 17 18 19 20 21 22 23 24 25 26 27 28 29 30
000
FTUS41 KOKX 220500
TAFLGA
TAF
KLGA 220528Z 2206/2306 VRB06KT 5SM -RA BR BKN020
     FM220700 13007KT P6SM VCSH BKN020
     FM221000 10008KT P6SM OVC020
     FM221400 09011KT P6SM SCT025 OVC035
     FM230200 08009KT P6SM BKN020 OVC035=

USA.gov is the U.S. government's official web portal to all federal, state and local government web resources and services.